createdAt,value
2018-09-12T00:00:28.970Z,13.60
2018-09-12T00:02:58.845Z,13.60
2018-09-12T00:05:27.211Z,13.50
2018-09-12T00:07:55.641Z,13.50
2018-09-12T00:10:24.351Z,13.40
2018-09-12T00:12:53.249Z,13.40
2018-09-12T00:15:22.379Z,13.40
2018-09-12T00:17:50.759Z,13.40
2018-09-12T00:20:19.706Z,13.30
2018-09-12T00:22:48.538Z,13.30
2018-09-12T00:25:16.959Z,13.20
2018-09-12T00:27:45.323Z,13.20
2018-09-12T00:30:13.695Z,13.20
2018-09-12T00:32:42.526Z,13.20
2018-09-12T00:35:10.914Z,13.30
2018-09-12T00:37:39.282Z,13.20
2018-09-12T00:42:35.986Z,13.10
2018-09-12T00:45:04.425Z,13.10
2018-09-12T00:47:32.802Z,13.10
2018-09-12T00:50:01.159Z,13.10
2018-09-12T00:52:29.892Z,13.00
2018-09-12T00:54:58.234Z,12.90
2018-09-12T00:57:26.631Z,13.00
2018-09-12T00:59:55.603Z,12.90
2018-09-12T01:02:24.287Z,12.90
2018-09-12T01:07:21.321Z,12.80
2018-09-12T01:09:49.678Z,12.80
2018-09-12T01:12:18.619Z,12.80
2018-09-12T01:14:47.247Z,12.90
2018-09-12T01:17:15.920Z,12.90
2018-09-12T01:19:45.902Z,12.90
2018-09-12T01:22:16.299Z,12.90
2018-09-12T01:24:45.256Z,12.90
2018-09-12T01:27:13.694Z,12.90
2018-09-12T01:29:42.408Z,12.80
2018-09-12T01:32:11.017Z,12.70
2018-09-12T01:34:39.655Z,12.60
2018-09-12T01:37:08.542Z,12.50
2018-09-12T01:39:36.891Z,12.50
2018-09-12T01:42:05.239Z,12.40
2018-09-12T01:44:34.118Z,12.30
2018-09-12T01:47:02.778Z,12.40
2018-09-12T01:49:31.143Z,12.50
2018-09-12T01:51:59.629Z,12.50
2018-09-12T01:54:27.969Z,12.40
2018-09-12T01:56:56.339Z,12.40
2018-09-12T01:59:25.007Z,12.40
2018-09-12T02:01:53.367Z,12.40
2018-09-12T02:06:50.363Z,12.20
2018-09-12T02:09:19.066Z,12.20
2018-09-12T02:11:47.746Z,12.20
2018-09-12T02:14:16.377Z,12.20
2018-09-12T02:16:44.731Z,12.20
2018-09-12T02:19:13.329Z,12.10
2018-09-12T02:21:42.010Z,12.10
2018-09-12T02:24:10.655Z,12.20
2018-09-12T02:26:39.379Z,12.20
2018-09-12T02:29:08.174Z,12.20
2018-09-12T02:31:37.323Z,12.20
2018-09-12T02:34:05.723Z,12.20
2018-09-12T02:36:34.335Z,12.10
2018-09-12T02:39:05.228Z,12.10
2018-09-12T02:41:35.018Z,12.10
2018-09-12T02:51:29.314Z,12.00
2018-09-12T02:53:57.954Z,12.00
2018-09-12T02:56:26.350Z,12.10
2018-09-12T02:58:55.062Z,12.10
2018-09-12T03:01:23.422Z,12.00
2018-09-12T03:04:08.487Z,11.90
2018-09-12T03:06:36.910Z,11.80
2018-09-12T03:09:07.379Z,11.90
2018-09-12T03:11:36.071Z,11.90
2018-09-12T03:14:04.487Z,12.00
2018-09-12T03:16:33.375Z,12.00
2018-09-12T03:19:02.036Z,11.90
2018-09-12T03:21:32.183Z,11.90
2018-09-12T03:24:00.590Z,11.80
2018-09-12T03:26:29.215Z,11.80
2018-09-12T03:28:58.199Z,11.80
2018-09-12T03:31:27.016Z,11.80
2018-09-12T03:33:55.386Z,11.70
2018-09-12T03:36:23.747Z,11.80
2018-09-12T03:38:52.134Z,11.70
2018-09-12T03:41:20.530Z,11.70
2018-09-12T03:43:48.909Z,11.70
2018-09-12T03:46:18.029Z,11.70
2018-09-12T03:48:46.650Z,11.70
2018-09-12T03:51:14.996Z,11.70
2018-09-12T03:53:43.334Z,11.70
2018-09-12T03:56:11.979Z,11.60
2018-09-12T03:58:40.713Z,11.60
2018-09-12T04:01:09.616Z,11.60
2018-09-12T04:03:38.250Z,11.60
2018-09-12T04:06:06.614Z,11.60
2018-09-12T04:08:35.295Z,11.60
2018-09-12T04:11:03.680Z,11.60
2018-09-12T04:13:32.626Z,11.60
2018-09-12T04:16:01.576Z,11.60
2018-09-12T04:18:29.950Z,11.60
2018-09-12T04:20:58.298Z,11.60
2018-09-12T04:23:26.655Z,11.60
2018-09-12T04:25:55.088Z,11.60
2018-09-12T04:28:23.759Z,11.60
2018-09-12T04:30:52.130Z,11.60
2018-09-12T04:33:20.751Z,11.60
2018-09-12T04:35:49.148Z,11.60
2018-09-12T04:38:17.663Z,11.60
2018-09-12T04:40:46.039Z,11.60
2018-09-12T04:43:15.665Z,11.60
2018-09-12T04:45:44.039Z,11.60
2018-09-12T04:48:12.423Z,11.50
2018-09-12T04:50:40.810Z,11.50
2018-09-12T04:53:09.443Z,11.50
2018-09-12T04:55:38.583Z,11.50
2018-09-12T04:58:07.135Z,11.60
2018-09-12T05:00:35.534Z,11.50
2018-09-12T05:03:04.183Z,11.50
2018-09-12T05:05:32.996Z,11.50
2018-09-12T05:08:01.338Z,11.50
2018-09-12T05:10:29.962Z,11.50
2018-09-12T05:12:58.622Z,11.50
2018-09-12T05:15:26.969Z,11.60
2018-09-12T05:17:55.666Z,11.90
2018-09-12T05:20:24.367Z,12.90
2018-09-12T05:22:53.011Z,13.10
2018-09-12T05:25:21.722Z,13.90
2018-09-12T05:30:19.314Z,15.00
2018-09-12T05:35:16.218Z,15.80
2018-09-12T05:37:45.266Z,15.60
2018-09-12T05:40:13.691Z,15.80
2018-09-12T05:42:42.027Z,16.60
2018-09-12T05:45:11.638Z,16.70
2018-09-12T05:47:40.298Z,16.80
2018-09-12T05:50:08.732Z,16.10
2018-09-12T05:52:37.786Z,15.70
2018-09-12T05:55:06.478Z,16.00
2018-09-12T05:57:34.826Z,16.60
2018-09-12T06:00:03.299Z,17.50
2018-09-12T06:02:31.667Z,17.60
2018-09-12T06:05:00.027Z,18.10
2018-09-12T06:07:28.403Z,17.80
2018-09-12T06:09:57.051Z,17.90
2018-09-12T06:12:26.797Z,17.90
2018-09-12T06:14:55.447Z,17.90
2018-09-12T06:17:25.391Z,17.70
2018-09-12T06:19:53.752Z,17.70
2018-09-12T06:22:22.121Z,17.90
2018-09-12T06:24:50.467Z,18.00
2018-09-12T06:27:19.062Z,18.10
2018-09-12T06:29:47.447Z,18.30
2018-09-12T06:32:16.520Z,18.40
2018-09-12T06:34:45.043Z,18.50
2018-09-12T06:37:13.430Z,18.70
2018-09-12T06:39:42.148Z,18.90
2018-09-12T06:42:11.090Z,19.10
2018-09-12T06:44:40.146Z,19.40
2018-09-12T06:47:09.398Z,19.80
2018-09-12T06:49:37.773Z,19.90
2018-09-12T06:52:06.583Z,19.90
2018-09-12T06:54:35.448Z,19.90
2018-09-12T06:57:03.827Z,20.10
2018-09-12T06:59:32.289Z,20.50
2018-09-12T07:02:00.935Z,20.90
2018-09-12T07:04:29.898Z,21.10
2018-09-12T07:06:58.283Z,21.30
2018-09-12T07:09:26.934Z,21.70
2018-09-12T07:11:55.627Z,22.00
2018-09-12T07:14:24.037Z,22.10
2018-09-12T07:16:52.622Z,22.20
2018-09-12T07:19:22.218Z,22.60
2018-09-12T07:21:50.883Z,22.70
2018-09-12T07:24:19.538Z,23.10
2018-09-12T07:26:48.147Z,23.20
2018-09-12T07:29:17.078Z,23.30
2018-09-12T07:34:13.567Z,23.60
2018-09-12T07:36:41.942Z,23.90
2018-09-12T07:39:12.107Z,24.00
2018-09-12T07:46:37.241Z,25.30
2018-09-12T07:51:34.347Z,26.10
2018-09-12T07:54:02.984Z,26.40
2018-09-12T07:56:31.530Z,26.70
2018-09-12T07:58:59.771Z,26.80
2018-09-12T08:01:28.128Z,27.00
2018-09-12T08:03:57.118Z,26.90
2018-09-12T08:06:25.466Z,27.10
2018-09-12T08:08:54.158Z,27.30
2018-09-12T08:11:22.843Z,27.20
2018-09-12T08:13:51.530Z,27.00
2018-09-12T08:16:19.875Z,26.80
2018-09-12T08:18:48.383Z,27.10
2018-09-12T08:21:16.995Z,26.60
2018-09-12T08:23:45.924Z,27.00
2018-09-12T08:26:15.002Z,27.40
2018-09-12T08:28:43.385Z,27.50
2018-09-12T08:31:12.074Z,27.50
2018-09-12T08:33:40.467Z,27.40
2018-09-12T08:36:09.083Z,27.60
2018-09-12T08:38:38.040Z,27.80
2018-09-12T08:41:06.890Z,27.90
2018-09-12T08:43:35.494Z,27.70
2018-09-12T08:46:04.131Z,27.80
2018-09-12T08:48:32.647Z,27.90
2018-09-12T08:53:29.090Z,29.30
2018-09-12T08:55:57.747Z,29.60
2018-09-12T08:58:26.331Z,29.50
2018-09-12T09:00:55.023Z,29.50
2018-09-12T09:03:23.673Z,29.90
2018-09-12T09:05:52.326Z,30.20
2018-09-12T09:08:21.283Z,30.60
2018-09-12T09:10:49.919Z,30.90
2018-09-12T09:13:18.548Z,30.90
2018-09-12T09:15:47.539Z,31.10
2018-09-12T09:20:46.482Z,31.30
2018-09-12T09:23:14.870Z,30.90
2018-09-12T09:25:43.248Z,31.20
2018-09-12T09:28:11.634Z,31.20
2018-09-12T09:30:40.243Z,31.40
2018-09-12T09:33:08.826Z,31.80
2018-09-12T09:35:37.390Z,32.00
2018-09-12T09:38:06.259Z,32.20
2018-09-12T09:40:34.648Z,31.90
2018-09-12T09:43:03.334Z,32.40
2018-09-12T09:45:31.673Z,32.50
2018-09-12T09:48:00.115Z,31.60
2018-09-12T09:50:28.666Z,31.80
2018-09-12T09:52:57.031Z,31.70
2018-09-12T09:55:25.403Z,32.20
2018-09-12T09:57:54.372Z,32.20
2018-09-12T10:00:28.207Z,32.80
2018-09-12T10:03:02.071Z,33.20
2018-09-12T10:05:35.698Z,33.60
2018-09-12T10:08:09.535Z,33.90
2018-09-12T10:10:37.906Z,34.00
2018-09-12T10:13:06.801Z,34.30
2018-09-12T10:15:35.206Z,34.50
2018-09-12T10:20:32.134Z,34.70
2018-09-12T10:23:00.782Z,34.80
2018-09-12T10:25:29.410Z,34.90
2018-09-12T10:27:57.996Z,34.90
2018-09-12T10:30:26.635Z,34.60
2018-09-12T10:37:54.415Z,35.90
2018-09-12T12:36:35.380Z,34.50
2018-09-12T12:39:04.786Z,33.10
2018-09-12T12:41:33.239Z,33.50
2018-09-12T12:44:01.626Z,34.20
2018-09-12T12:46:30.606Z,35.00
2018-09-12T12:48:59.136Z,34.40
2018-09-12T12:51:27.774Z,34.20
2018-09-12T12:53:56.139Z,34.30
2018-09-12T12:56:24.795Z,34.80
2018-09-12T12:58:53.601Z,34.80
2018-09-12T13:01:22.635Z,34.30
2018-09-12T13:03:51.022Z,34.70
2018-09-12T13:06:19.651Z,34.30
2018-09-12T13:08:48.022Z,33.00
2018-09-12T13:11:16.675Z,33.50
2018-09-12T13:13:45.126Z,33.90
2018-09-12T13:16:13.834Z,34.10
2018-09-12T13:18:42.426Z,34.80
2018-09-12T13:21:11.212Z,35.50
2018-09-12T13:23:39.531Z,35.40
2018-09-12T13:26:08.402Z,34.90
2018-09-12T13:28:37.126Z,34.50
2018-09-12T13:31:05.561Z,34.60
2018-09-12T13:33:34.197Z,32.50
2018-09-12T13:36:02.957Z,32.60
2018-09-12T13:38:31.567Z,32.70
2018-09-12T13:41:00.479Z,33.00
2018-09-12T13:43:29.202Z,33.20
2018-09-12T13:45:57.835Z,32.30
2018-09-12T13:48:26.215Z,32.60
2018-09-12T13:50:54.858Z,32.60
2018-09-12T13:53:23.482Z,32.60
2018-09-12T13:55:51.990Z,32.80
2018-09-12T13:58:20.475Z,32.80
2018-09-12T14:00:48.915Z,32.40
2018-09-12T14:03:17.291Z,32.40
2018-09-12T14:05:46.231Z,32.60
2018-09-12T14:08:14.875Z,32.60
2018-09-12T14:10:43.343Z,32.60
2018-09-12T14:13:11.718Z,32.70
2018-09-12T14:15:40.330Z,32.70
2018-09-12T14:18:08.720Z,32.50
2018-09-12T14:20:37.226Z,32.40
2018-09-12T14:23:05.975Z,32.40
2018-09-12T14:25:34.634Z,32.20
2018-09-12T14:28:03.031Z,32.10
2018-09-12T14:30:31.421Z,31.90
2018-09-12T14:33:01.422Z,31.90
2018-09-12T14:35:31.194Z,31.80
2018-09-12T14:38:00.109Z,31.80
2018-09-12T14:40:28.694Z,31.80
2018-09-12T14:42:58.781Z,31.70
2018-09-12T14:45:29.726Z,31.60
2018-09-12T14:47:58.490Z,31.50
2018-09-12T14:50:29.316Z,31.40
2018-09-12T14:52:57.962Z,31.40
2018-09-12T14:55:26.902Z,31.40
2018-09-12T14:57:55.326Z,31.30
2018-09-12T15:00:27.303Z,31.30
2018-09-12T15:02:57.484Z,31.20
2018-09-12T15:05:26.543Z,31.30
2018-09-12T15:07:55.887Z,31.30
2018-09-12T15:10:24.575Z,31.00
2018-09-12T15:12:52.996Z,30.90
2018-09-12T15:15:21.653Z,30.70
2018-09-12T15:17:50.586Z,30.60
2018-09-12T15:20:19.646Z,30.70
2018-09-12T15:22:48.046Z,30.80
2018-09-12T15:25:16.622Z,30.80
2018-09-12T15:27:45.258Z,30.80
2018-09-12T15:30:13.754Z,30.80
2018-09-12T15:32:43.072Z,30.90
2018-09-12T15:35:11.771Z,30.90
2018-09-12T15:37:40.143Z,30.90
2018-09-12T15:40:08.545Z,31.00
2018-09-12T15:42:37.372Z,30.90
2018-09-12T15:45:05.799Z,30.70
2018-09-12T15:47:34.178Z,30.60
2018-09-12T15:50:02.527Z,30.70
2018-09-12T15:52:31.227Z,30.60
2018-09-12T15:54:59.602Z,30.60
2018-09-12T15:57:27.975Z,30.50
2018-09-12T15:59:56.910Z,30.50
2018-09-12T16:02:25.263Z,30.50
2018-09-12T16:04:53.643Z,30.40
2018-09-12T16:07:23.211Z,30.30
2018-09-12T16:09:51.607Z,30.30
2018-09-12T16:12:19.987Z,30.10
2018-09-12T16:14:48.447Z,30.00
2018-09-12T16:17:17.359Z,29.90
2018-09-12T16:19:46.203Z,29.80
2018-09-12T16:22:14.562Z,29.80
2018-09-12T16:24:43.219Z,29.70
2018-09-12T16:27:11.911Z,29.60
2018-09-12T16:29:40.294Z,29.50
2018-09-12T16:32:08.647Z,29.40
2018-09-12T16:34:37.528Z,29.30
2018-09-12T16:37:06.687Z,29.20
2018-09-12T16:39:35.395Z,29.10
2018-09-12T16:42:03.971Z,29.10
2018-09-12T16:44:32.395Z,29.00
2018-09-12T16:47:01.283Z,29.00
2018-09-12T16:49:29.979Z,28.80
2018-09-12T16:51:58.655Z,28.80
2018-09-12T16:54:27.265Z,28.70
2018-09-12T16:56:56.247Z,28.60
2018-09-12T16:59:25.772Z,28.40
2018-09-12T17:01:54.406Z,28.30
2018-09-12T17:04:22.762Z,28.20
2018-09-12T17:06:51.160Z,28.20
2018-09-12T17:09:19.854Z,28.10
2018-09-12T17:11:48.550Z,28.00
2018-09-12T17:14:17.085Z,27.80
2018-09-12T17:16:46.262Z,27.70
2018-09-12T17:19:14.878Z,27.60
2018-09-12T17:21:43.276Z,27.50
2018-09-12T17:24:11.941Z,27.30
2018-09-12T17:26:40.370Z,27.10
2018-09-12T17:29:09.030Z,27.00
2018-09-12T17:31:37.584Z,26.90
2018-09-12T17:34:06.298Z,26.80
2018-09-12T17:36:34.698Z,26.70
2018-09-12T17:39:03.155Z,26.60
2018-09-12T17:41:31.530Z,26.50
2018-09-12T17:44:00.207Z,26.50
2018-09-12T17:46:28.911Z,26.40
2018-09-12T17:48:57.286Z,26.30
2018-09-12T17:51:25.658Z,26.10
2018-09-12T17:53:54.114Z,26.00
2018-09-12T17:56:22.830Z,25.90
2018-09-12T17:58:51.187Z,25.70
2018-09-12T18:01:19.863Z,25.60
2018-09-12T18:03:48.224Z,25.60
2018-09-12T18:06:16.899Z,25.40
2018-09-12T18:08:45.266Z,25.30
2018-09-12T18:11:13.641Z,25.10
2018-09-12T18:13:42.355Z,24.80
2018-09-12T18:16:10.773Z,24.60
2018-09-12T18:18:39.303Z,24.40
2018-09-12T18:21:07.978Z,24.40
2018-09-12T18:23:36.364Z,24.10
2018-09-12T18:26:05.128Z,23.90
2018-09-12T18:28:33.516Z,23.90
2018-09-12T18:31:01.937Z,23.80
2018-09-12T18:33:31.019Z,23.60
2018-09-12T18:35:59.426Z,23.60
2018-09-12T18:38:28.404Z,23.50
2018-09-12T18:40:56.779Z,23.30
2018-09-12T18:43:25.400Z,23.20
2018-09-12T18:45:54.840Z,23.00
2018-09-12T18:48:23.392Z,22.80
2018-09-12T18:50:51.783Z,22.70
2018-09-12T18:53:20.512Z,22.70
2018-09-12T18:55:48.910Z,22.60
2018-09-12T18:58:17.293Z,22.50
2018-09-12T19:00:46.294Z,22.50
2018-09-12T19:03:14.690Z,22.40
2018-09-12T19:05:43.623Z,22.40
2018-09-12T19:08:12.568Z,22.20
2018-09-12T19:10:41.435Z,22.00
2018-09-12T19:13:10.177Z,22.00
2018-09-12T19:15:38.587Z,21.80
2018-09-12T19:18:07.799Z,21.70
2018-09-12T19:20:36.139Z,21.70
2018-09-12T19:23:05.039Z,21.70
2018-09-12T19:25:33.604Z,21.50
2018-09-12T19:28:02.610Z,21.40
2018-09-12T19:30:31.359Z,21.30
2018-09-12T19:33:00.810Z,21.40
2018-09-12T19:35:29.154Z,21.40
2018-09-12T19:37:58.335Z,21.40
2018-09-12T19:40:26.737Z,21.40
2018-09-12T19:42:55.427Z,21.40
2018-09-12T19:45:24.115Z,21.40
2018-09-12T19:47:53.098Z,21.30
2018-09-12T19:50:21.454Z,21.20
2018-09-12T19:52:50.183Z,21.00
2018-09-12T19:55:18.808Z,20.90
2018-09-12T19:57:47.407Z,20.90
2018-09-12T20:00:21.754Z,20.80
2018-09-12T20:02:50.408Z,20.90
2018-09-12T20:05:19.538Z,20.70
2018-09-12T20:07:48.231Z,20.70
2018-09-12T20:10:16.658Z,20.70
2018-09-12T20:12:45.362Z,20.60
2018-09-12T20:15:13.731Z,20.60
2018-09-12T20:17:42.138Z,20.70
2018-09-12T20:20:10.531Z,20.70
2018-09-12T20:22:38.939Z,20.70
2018-09-12T20:25:07.374Z,20.70
2018-09-12T20:27:35.753Z,20.70
2018-09-12T20:30:04.516Z,20.60
2018-09-12T20:32:32.915Z,20.50
2018-09-12T20:35:01.555Z,20.30
2018-09-12T20:37:30.190Z,19.90
2018-09-12T20:39:59.146Z,19.80
2018-09-12T20:42:27.818Z,19.80
2018-09-12T20:44:56.495Z,19.90
2018-09-12T20:47:24.898Z,20.00
2018-09-12T20:49:53.250Z,20.10
2018-09-12T20:52:21.662Z,20.10
2018-09-12T20:54:50.734Z,20.10
2018-09-12T20:57:19.434Z,20.10
2018-09-12T20:59:48.099Z,20.10
2018-09-12T21:02:16.774Z,20.20
2018-09-12T21:04:45.375Z,20.10
2018-09-12T21:07:13.774Z,20.10
2018-09-12T21:09:42.434Z,20.40
2018-09-12T21:12:10.814Z,20.70
2018-09-12T21:14:39.183Z,20.80
2018-09-12T21:17:07.655Z,21.10
2018-09-12T21:19:36.064Z,21.30
2018-09-12T21:22:05.039Z,21.40
2018-09-12T21:24:33.398Z,21.60
2018-09-12T21:27:02.634Z,21.60
2018-09-12T21:29:30.987Z,21.50
2018-09-12T21:31:59.411Z,21.40
2018-09-12T21:34:27.764Z,21.20
2018-09-12T21:36:56.370Z,20.90
2018-09-12T21:39:24.731Z,20.70
2018-09-12T21:41:54.346Z,20.20
2018-09-12T21:44:22.715Z,19.90
2018-09-12T21:46:51.079Z,19.60
2018-09-12T21:49:19.690Z,19.50
2018-09-12T21:51:48.343Z,19.60
2018-09-12T21:54:16.965Z,19.30
2018-09-12T21:56:45.401Z,19.30
2018-09-12T21:59:13.762Z,19.20
2018-09-12T22:01:42.395Z,19.10
2018-09-12T22:04:11.196Z,19.10
2018-09-12T22:06:39.885Z,19.10
2018-09-12T22:09:10.277Z,19.10
2018-09-12T22:11:38.923Z,19.10
2018-09-12T22:14:07.639Z,19.10
2018-09-12T22:16:36.046Z,19.20
2018-09-12T22:19:04.430Z,19.30
2018-09-12T22:21:32.794Z,19.30
2018-09-12T22:24:01.166Z,19.20
2018-09-12T22:26:29.558Z,19.10
2018-09-12T22:28:58.218Z,19.10
2018-09-12T22:31:27.143Z,19.10
2018-09-12T22:33:55.511Z,19.10
2018-09-12T22:36:24.211Z,19.00
2018-09-12T22:38:53.159Z,18.90
2018-09-12T22:41:21.810Z,18.80
2018-09-12T22:43:50.426Z,18.80
2018-09-12T22:46:18.810Z,18.80
2018-09-12T22:48:47.175Z,18.80
2018-09-12T22:51:15.568Z,18.70
2018-09-12T22:53:43.934Z,18.60
2018-09-12T22:56:12.573Z,18.60
2018-09-12T22:58:40.946Z,18.50
2018-09-12T23:01:09.334Z,18.40
2018-09-12T23:03:37.964Z,18.40
2018-09-12T23:06:06.694Z,18.30
2018-09-12T23:08:35.433Z,18.20
2018-09-12T23:11:03.838Z,18.20
2018-09-12T23:13:32.199Z,18.20
2018-09-12T23:16:00.583Z,18.10
2018-09-12T23:18:28.950Z,18.00
2018-09-12T23:20:58.354Z,17.90
2018-09-12T23:23:27.053Z,17.90
2018-09-12T23:25:55.642Z,17.90
2018-09-12T23:28:24.307Z,17.90
2018-09-12T23:30:53.003Z,17.90
2018-09-12T23:33:21.374Z,17.80
2018-09-12T23:35:49.734Z,17.80
2018-09-12T23:38:18.110Z,17.70
2018-09-12T23:40:46.482Z,17.60
2018-09-12T23:43:14.870Z,17.60
2018-09-12T23:45:43.518Z,17.50
2018-09-12T23:48:11.858Z,17.50
2018-09-12T23:50:40.630Z,17.30
2018-09-12T23:53:09.626Z,17.30
2018-09-12T23:55:38.012Z,17.30
2018-09-12T23:58:06.495Z,17.30
